Terminal Aerodrome Forecast
Issued by NWS Tuscon, AZ

Current Version | Previous Version | Text Only | Print | Product List | Glossary On
Versions: 1 2 3 4 5 6 7 8 9 10 11 12 13 14
000
FTUS45 KTWC 291100
TAFTUS
TAF
KTUS 291120Z 2912/3012 16007KT P6SM BKN140 OVC250
     FM291700 13012G20KT P6SM BKN100 OVC150
     FM300300 11008KT P6SM VCSH BKN070 OVC120
     FM300500 12009KT P6SM -SHRA SCT020 BKN035 OVC070=

USA.gov is the U.S. government's official web portal to all federal, state and local government web resources and services.